createdAt,value
2022-09-02T00:02:31.426Z,22.30
2022-09-02T00:05:33.556Z,22.30
2022-09-02T00:08:36.412Z,22.40
2022-09-02T00:11:40.675Z,22.40
2022-09-02T00:14:42.739Z,22.50
2022-09-02T00:17:44.877Z,22.50
2022-09-02T00:20:49.188Z,22.50
2022-09-02T00:23:51.620Z,22.40
2022-09-02T00:26:56.636Z,22.50
2022-09-02T00:30:02.086Z,22.40
2022-09-02T00:33:04.854Z,22.40
2022-09-02T00:36:07.467Z,22.30
2022-09-02T00:39:10.588Z,22.20
2022-09-02T00:42:12.752Z,22.20
2022-09-02T00:45:15.183Z,22.10
2022-09-02T00:48:17.309Z,22.20
2022-09-02T00:51:19.741Z,22.20
2022-09-02T00:54:24.257Z,22.20
2022-09-02T00:57:32.246Z,22.30
2022-09-02T01:00:39.755Z,22.30
2022-09-02T01:03:42.275Z,22.20
2022-09-02T01:06:44.850Z,22.20
2022-09-02T01:09:47.122Z,22.20
2022-09-02T01:12:49.442Z,22.30
2022-09-02T01:16:02.599Z,22.40
2022-09-02T01:19:10.485Z,22.50
2022-09-02T01:22:20.760Z,22.50
2022-09-02T01:25:27.506Z,22.40
2022-09-02T01:28:29.627Z,22.50
2022-09-02T01:31:31.772Z,22.50
2022-09-02T01:34:33.859Z,22.50
2022-09-02T01:37:38.762Z,22.50
2022-09-02T01:40:41.294Z,22.50
2022-09-02T01:43:43.581Z,22.40
2022-09-02T01:46:45.986Z,22.40
2022-09-02T01:49:48.896Z,22.30
2022-09-02T01:52:51.066Z,22.10
2022-09-02T01:55:53.269Z,22.00
2022-09-02T01:58:55.527Z,21.90
2022-09-02T02:01:58.045Z,21.90
2022-09-02T02:05:00.474Z,21.90
2022-09-02T02:08:03.147Z,21.70
2022-09-02T02:11:06.269Z,21.60
2022-09-02T02:14:08.514Z,21.70
2022-09-02T02:17:10.715Z,21.60
2022-09-02T02:20:15.222Z,21.60
2022-09-02T02:23:18.129Z,21.60
2022-09-02T02:26:20.417Z,21.60
2022-09-02T02:29:23.221Z,21.60
2022-09-02T02:32:26.166Z,21.60
2022-09-02T02:35:28.335Z,21.60
2022-09-02T02:38:31.060Z,21.50
2022-09-02T02:41:34.443Z,21.50
2022-09-02T02:44:36.484Z,21.50
2022-09-02T02:47:43.261Z,21.50
2022-09-02T02:50:45.332Z,21.40
2022-09-02T02:53:47.711Z,21.40
2022-09-02T02:56:49.843Z,21.40
2022-09-02T02:59:51.943Z,21.40
2022-09-02T03:02:58.884Z,21.40
2022-09-02T03:06:01.078Z,21.40
2022-09-02T03:09:04.152Z,21.40
2022-09-02T03:12:06.720Z,21.30
2022-09-02T03:15:11.367Z,21.30
2022-09-02T03:18:13.516Z,21.30
2022-09-02T03:21:16.198Z,21.30
2022-09-02T03:24:18.260Z,21.20
2022-09-02T03:27:20.448Z,21.10
2022-09-02T03:30:25.982Z,21.10
2022-09-02T03:33:29.029Z,21.00
2022-09-02T03:36:38.863Z,21.00
2022-09-02T03:39:41.117Z,21.00
2022-09-02T03:42:43.326Z,21.10
2022-09-02T03:45:49.787Z,21.00
2022-09-02T03:48:52.164Z,21.10
2022-09-02T03:51:54.367Z,21.20
2022-09-02T03:54:56.551Z,21.20
2022-09-02T03:57:58.976Z,21.30
2022-09-02T04:01:01.334Z,21.20
2022-09-02T04:04:05.394Z,21.10
2022-09-02T04:07:07.469Z,21.10
2022-09-02T04:10:09.935Z,21.00
2022-09-02T04:13:12.142Z,21.10
2022-09-02T04:16:18.381Z,21.00
2022-09-02T04:19:20.632Z,21.10
2022-09-02T04:22:22.720Z,21.20
2022-09-02T04:25:27.675Z,21.20
2022-09-02T04:28:29.934Z,21.20
2022-09-02T04:31:32.205Z,21.30
2022-09-02T04:34:34.428Z,21.20
2022-09-02T04:37:36.547Z,21.10
2022-09-02T04:40:44.905Z,21.10
2022-09-02T04:43:47.571Z,21.20
2022-09-02T04:46:50.337Z,21.10
2022-09-02T04:49:53.378Z,21.10
2022-09-02T04:52:55.817Z,21.10
2022-09-02T04:55:58.258Z,21.10
2022-09-02T04:59:01.253Z,21.10
2022-09-02T05:02:05.371Z,21.00
2022-09-02T05:05:07.718Z,21.00
2022-09-02T05:08:10.250Z,21.00
2022-09-02T05:11:18.514Z,21.00
2022-09-02T05:14:20.735Z,21.00
2022-09-02T05:17:23.443Z,20.90
2022-09-02T05:20:26.307Z,20.80
2022-09-02T05:23:28.526Z,20.90
2022-09-02T05:26:33.779Z,20.90
2022-09-02T05:29:45.761Z,20.90
2022-09-02T05:32:50.079Z,20.90
2022-09-02T05:35:54.534Z,20.80
2022-09-02T05:38:56.616Z,20.80
2022-09-02T05:41:58.776Z,20.80
2022-09-02T05:45:00.851Z,20.80
2022-09-02T05:48:23.123Z,20.90
2022-09-02T05:51:26.128Z,20.80
2022-09-02T05:54:33.056Z,20.80
2022-09-02T05:57:35.280Z,20.80
2022-09-02T06:00:39.888Z,20.80
2022-09-02T06:03:41.994Z,20.90
2022-09-02T06:06:44.899Z,20.80
2022-09-02T06:09:47.066Z,20.90
2022-09-02T06:12:49.115Z,20.90
2022-09-02T06:15:51.733Z,20.80
2022-09-02T06:18:53.963Z,20.80
2022-09-02T06:21:57.122Z,20.90
2022-09-02T06:24:59.307Z,20.90
2022-09-02T06:28:06.379Z,21.00
2022-09-02T06:31:18.541Z,21.00
2022-09-02T06:34:22.938Z,21.10
2022-09-02T06:37:25.131Z,21.10
2022-09-02T06:40:27.757Z,21.30
2022-09-02T06:43:35.780Z,21.70
2022-09-02T06:46:48.370Z,22.50
2022-09-02T06:49:53.844Z,23.10
2022-09-02T06:52:55.962Z,23.90
2022-09-02T06:55:58.006Z,24.60
2022-09-02T06:59:00.318Z,25.10
2022-09-02T07:02:03.455Z,25.80
2022-09-02T07:05:15.339Z,26.40
2022-09-02T07:08:17.466Z,26.60
2022-09-02T07:11:22.885Z,26.70
2022-09-02T07:14:27.966Z,26.90
2022-09-02T07:17:30.695Z,27.10
2022-09-02T07:20:55.975Z,26.80
2022-09-02T07:24:02.101Z,26.80
2022-09-02T07:27:06.026Z,27.20
2022-09-02T07:30:08.819Z,27.60
2022-09-02T07:33:14.730Z,28.10
2022-09-02T07:36:21.693Z,28.80
2022-09-02T07:39:23.922Z,29.70
2022-09-02T07:45:34.503Z,30.60
2022-09-02T07:48:37.546Z,30.50
2022-09-02T07:51:43.044Z,30.50
2022-09-02T07:54:45.542Z,30.40
2022-09-02T07:57:48.197Z,31.10
2022-09-02T08:00:51.489Z,31.80
2022-09-02T08:03:53.890Z,32.40
2022-09-02T08:06:56.555Z,32.20
2022-09-02T08:10:01.087Z,31.90
2022-09-02T08:13:06.568Z,31.70
2022-09-02T08:16:09.184Z,31.30
2022-09-02T08:19:12.543Z,31.50
2022-09-02T08:22:15.460Z,32.40
2022-09-02T08:25:20.572Z,32.20
2022-09-02T08:28:22.913Z,32.70
2022-09-02T08:31:25.099Z,33.00
2022-09-02T08:34:27.310Z,33.30
2022-09-02T08:37:31.581Z,33.60
2022-09-02T08:40:42.512Z,33.40
2022-09-02T08:43:46.142Z,32.80
2022-09-02T08:46:52.007Z,31.90
2022-09-02T08:50:00.568Z,31.30
2022-09-02T08:53:21.423Z,31.10
2022-09-02T08:56:23.593Z,31.90
2022-09-02T08:59:27.812Z,33.00
2022-09-02T09:02:33.000Z,33.50
2022-09-02T09:06:09.720Z,34.70
2022-09-02T09:09:27.595Z,35.30
2022-09-02T09:12:36.205Z,36.00
2022-09-02T09:15:49.845Z,35.50
2022-09-02T09:19:27.432Z,35.70
2022-09-02T09:22:37.488Z,35.70
2022-09-02T09:25:41.111Z,35.30
2022-09-02T09:28:47.142Z,35.10
2022-09-02T09:31:56.167Z,35.00
2022-09-02T09:35:10.311Z,35.60
2022-09-02T09:38:14.322Z,36.70
2022-09-02T09:41:24.209Z,36.50
2022-09-02T09:44:47.044Z,35.90
2022-09-02T09:48:12.320Z,35.70
2022-09-02T09:51:16.122Z,35.40
2022-09-02T09:54:18.540Z,35.00
2022-09-02T09:57:21.920Z,35.40
2022-09-02T10:00:32.898Z,34.50
2022-09-02T10:03:42.053Z,34.30
2022-09-02T10:06:44.689Z,33.90
2022-09-02T10:09:46.789Z,33.20
2022-09-02T10:12:51.756Z,32.70
2022-09-02T10:16:11.665Z,32.10
2022-09-02T10:19:44.268Z,31.70
2022-09-02T10:23:25.650Z,31.70
2022-09-02T10:26:41.432Z,31.50
2022-09-02T10:29:59.271Z,30.70
2022-09-02T10:33:10.310Z,30.40
2022-09-02T10:36:36.503Z,30.60
2022-09-02T10:40:08.559Z,32.40
2022-09-02T10:43:24.236Z,33.80
2022-09-02T10:46:27.819Z,33.90
2022-09-02T10:49:48.628Z,33.40
2022-09-02T10:52:53.813Z,33.10
2022-09-02T10:56:05.733Z,33.90
2022-09-02T10:59:14.768Z,33.90
2022-09-02T11:02:22.908Z,33.50
2022-09-02T11:05:53.157Z,33.00
2022-09-02T11:09:06.489Z,32.80
2022-09-02T11:12:21.463Z,32.70
2022-09-02T11:15:47.624Z,34.10
2022-09-02T11:18:58.219Z,35.00
2022-09-02T11:22:15.036Z,34.50
2022-09-02T11:25:32.821Z,33.50
2022-09-02T11:28:44.093Z,33.70
2022-09-02T11:32:15.928Z,33.80
2022-09-02T11:35:28.052Z,34.40
2022-09-02T11:38:59.301Z,34.30
2022-09-02T11:42:28.838Z,34.20
2022-09-02T11:45:41.633Z,34.00
2022-09-02T11:49:10.309Z,33.50
2022-09-02T11:52:24.812Z,33.50
2022-09-02T11:55:38.622Z,32.80
2022-09-02T11:58:49.713Z,32.60
2022-09-02T12:01:55.870Z,32.40
2022-09-02T12:05:35.407Z,32.00
2022-09-02T12:08:40.802Z,32.00
2022-09-02T12:11:49.007Z,31.80
2022-09-02T12:14:51.131Z,31.80
2022-09-02T12:17:53.338Z,31.50
2022-09-02T12:20:59.333Z,31.30
2022-09-02T12:24:01.326Z,31.40
2022-09-02T12:27:08.147Z,31.50
2022-09-02T12:30:13.718Z,31.30
2022-09-02T12:33:33.514Z,31.10
2022-09-02T12:36:42.478Z,30.90
2022-09-02T12:39:44.564Z,30.80
2022-09-02T12:42:48.394Z,30.80
2022-09-02T12:45:50.818Z,31.00
2022-09-02T12:49:15.159Z,30.80
2022-09-02T12:52:35.791Z,30.90
2022-09-02T12:55:38.527Z,30.90
2022-09-02T12:58:46.278Z,30.60
2022-09-02T13:02:02.787Z,30.50
2022-09-02T13:05:42.380Z,30.60
2022-09-02T13:09:10.430Z,30.40
2022-09-02T13:12:30.298Z,30.30
2022-09-02T13:15:58.837Z,30.20
2022-09-02T13:19:36.500Z,29.90
2022-09-02T13:23:00.914Z,29.90
2022-09-02T13:26:47.913Z,29.80
2022-09-02T13:29:55.965Z,29.90
2022-09-02T13:33:06.565Z,29.60
2022-09-02T13:36:09.678Z,29.50
2022-09-02T13:39:20.875Z,29.50
2022-09-02T13:42:31.950Z,29.60
2022-09-02T13:45:36.004Z,29.40
2022-09-02T13:48:40.434Z,29.20
2022-09-02T13:51:45.522Z,29.20
2022-09-02T13:54:53.195Z,29.50
2022-09-02T13:58:03.781Z,29.60
2022-09-02T14:01:20.588Z,29.50
2022-09-02T14:04:23.834Z,29.10
2022-09-02T14:07:40.169Z,29.00
2022-09-02T14:10:44.272Z,29.00
2022-09-02T14:13:50.958Z,29.10
2022-09-02T14:17:13.250Z,29.20
2022-09-02T14:20:15.269Z,29.10
2022-09-02T14:23:17.448Z,29.00
2022-09-02T14:26:42.193Z,28.90
2022-09-02T14:29:47.329Z,28.80
2022-09-02T14:32:49.487Z,28.90
2022-09-02T14:36:13.121Z,28.60
2022-09-02T14:39:19.245Z,28.70
2022-09-02T14:42:21.867Z,28.70
2022-09-02T14:45:33.088Z,28.70
2022-09-02T14:48:39.035Z,28.70
2022-09-02T14:51:46.736Z,28.50
2022-09-02T14:54:50.909Z,28.30
2022-09-02T14:58:03.054Z,28.10
2022-09-02T15:01:08.721Z,28.00
2022-09-02T15:04:11.180Z,28.20
2022-09-02T15:07:16.877Z,28.20
2022-09-02T15:10:22.299Z,28.10
2022-09-02T15:13:24.497Z,27.90
2022-09-02T15:16:26.731Z,28.00
2022-09-02T15:19:28.903Z,28.00
2022-09-02T15:22:31.041Z,27.80
2022-09-02T15:25:34.536Z,27.90
2022-09-02T15:28:38.617Z,27.60
2022-09-02T15:31:42.228Z,27.70
2022-09-02T15:34:44.620Z,27.70
2022-09-02T15:37:50.674Z,27.80
2022-09-02T15:40:52.854Z,27.80
2022-09-02T15:43:55.004Z,27.80
2022-09-02T15:46:57.336Z,27.80
2022-09-02T15:49:59.444Z,27.80
2022-09-02T15:53:01.681Z,27.70
2022-09-02T15:56:03.895Z,27.70
2022-09-02T15:59:15.036Z,27.50
2022-09-02T16:02:17.404Z,27.60
2022-09-02T16:05:21.496Z,27.40
2022-09-02T16:08:23.589Z,27.20
2022-09-02T16:11:25.838Z,27.30
2022-09-02T16:14:28.929Z,27.20
2022-09-02T16:17:30.915Z,27.10
2022-09-02T16:20:33.040Z,27.00
2022-09-02T16:23:36.013Z,26.90
2022-09-02T16:26:40.150Z,27.00
2022-09-02T16:29:42.482Z,27.00
2022-09-02T16:32:45.041Z,27.00
2022-09-02T16:35:47.563Z,26.80
2022-09-02T16:38:50.307Z,26.80
2022-09-02T16:41:56.021Z,26.80
2022-09-02T16:44:58.442Z,26.70
2022-09-02T16:48:00.788Z,26.90
2022-09-02T16:51:04.730Z,26.60
2022-09-02T16:54:07.976Z,26.60
2022-09-02T16:57:10.306Z,26.60
2022-09-02T17:00:13.161Z,26.40
2022-09-02T17:03:15.601Z,26.50
2022-09-02T17:06:18.334Z,26.50
2022-09-02T17:09:20.922Z,26.30
2022-09-02T17:12:23.049Z,26.20
2022-09-02T17:15:26.214Z,26.20
2022-09-02T17:18:28.435Z,26.00
2022-09-02T17:21:45.053Z,26.00
2022-09-02T17:24:50.479Z,26.00
2022-09-02T17:27:55.378Z,25.90
2022-09-02T17:30:58.055Z,25.90
2022-09-02T17:34:02.582Z,25.80
2022-09-02T17:37:05.517Z,25.80
2022-09-02T17:40:32.334Z,25.60
2022-09-02T17:43:38.462Z,25.50
2022-09-02T17:46:41.400Z,25.60
2022-09-02T17:49:47.562Z,25.50
2022-09-02T17:52:49.750Z,25.20
2022-09-02T17:55:59.535Z,25.20
2022-09-02T17:59:20.233Z,25.10
2022-09-02T18:02:40.758Z,25.10
2022-09-02T18:06:03.737Z,25.00
2022-09-02T18:09:10.892Z,25.00
2022-09-02T18:12:13.803Z,24.90
2022-09-02T18:15:18.920Z,25.00
2022-09-02T18:18:21.708Z,24.70
2022-09-02T18:21:30.639Z,24.70
2022-09-02T18:24:58.703Z,24.60
2022-09-02T18:28:17.312Z,24.70
2022-09-02T18:31:28.874Z,24.60
2022-09-02T18:34:52.580Z,24.60
2022-09-02T18:38:16.899Z,24.30
2022-09-02T18:41:20.260Z,24.20
2022-09-02T18:44:54.657Z,24.10
2022-09-02T18:48:19.676Z,24.00
2022-09-02T18:51:43.414Z,24.00
2022-09-02T18:54:48.786Z,23.80
2022-09-02T18:58:00.102Z,23.80
2022-09-02T19:01:21.098Z,23.80
2022-09-02T19:04:29.371Z,23.70
2022-09-02T19:07:52.945Z,23.70
2022-09-02T19:11:26.015Z,23.60
2022-09-02T19:14:29.553Z,23.50
2022-09-02T19:17:31.646Z,23.40
2022-09-02T19:20:35.730Z,23.40
2022-09-02T19:23:38.159Z,23.20
2022-09-02T19:26:44.264Z,23.20
2022-09-02T19:29:51.524Z,23.20
2022-09-02T19:32:58.934Z,23.10
2022-09-02T19:36:01.205Z,23.10
2022-09-02T19:39:03.323Z,23.10
2022-09-02T19:42:06.685Z,23.10
2022-09-02T19:45:12.974Z,23.00
2022-09-02T19:48:19.109Z,23.00
2022-09-02T19:51:26.559Z,23.00
2022-09-02T19:54:29.780Z,22.90
2022-09-02T19:57:31.869Z,22.80
2022-09-02T20:00:34.457Z,22.70
2022-09-02T20:03:36.619Z,22.60
2022-09-02T20:06:39.714Z,22.60
2022-09-02T20:09:41.778Z,22.60
2022-09-02T20:12:44.003Z,22.60
2022-09-02T20:15:46.051Z,22.50
2022-09-02T20:18:50.340Z,22.50
2022-09-02T20:21:52.333Z,22.40
2022-09-02T20:24:55.431Z,22.30
2022-09-02T20:28:08.996Z,22.30
2022-09-02T20:31:29.591Z,22.30
2022-09-02T20:34:56.414Z,22.30
2022-09-02T20:38:21.251Z,22.30
2022-09-02T20:41:26.194Z,22.40
2022-09-02T20:45:09.829Z,22.30
2022-09-02T20:48:27.596Z,22.30
2022-09-02T20:51:59.377Z,22.20
2022-09-02T20:55:22.020Z,22.20
2022-09-02T20:58:39.945Z,22.20
2022-09-02T21:01:45.485Z,22.10
2022-09-02T21:04:53.267Z,22.10
2022-09-02T21:08:06.483Z,22.20
2022-09-02T21:11:13.140Z,22.20
2022-09-02T21:14:28.378Z,22.10
2022-09-02T21:17:56.267Z,22.00
2022-09-02T21:21:10.718Z,22.00
2022-09-02T21:24:18.665Z,22.00
2022-09-02T21:27:55.602Z,22.10
2022-09-02T21:31:12.809Z,22.20
2022-09-02T21:34:30.929Z,22.20
2022-09-02T21:37:36.797Z,22.20
2022-09-02T21:41:04.062Z,22.10
2022-09-02T21:44:09.303Z,22.10
2022-09-02T21:47:11.574Z,22.00
2022-09-02T21:50:22.591Z,21.90
2022-09-02T21:53:48.163Z,21.90
2022-09-02T21:57:15.186Z,22.00
2022-09-02T22:00:18.719Z,21.80
2022-09-02T22:03:43.922Z,21.80
2022-09-02T22:06:51.255Z,21.90
2022-09-02T22:10:05.768Z,21.90
2022-09-02T22:13:08.239Z,21.90
2022-09-02T22:16:20.888Z,21.90
2022-09-02T22:19:30.326Z,21.90
2022-09-02T22:22:38.997Z,21.90
2022-09-02T22:25:42.730Z,21.90
2022-09-02T22:28:49.876Z,21.90
2022-09-02T22:31:58.602Z,21.90
2022-09-02T22:35:13.083Z,21.90
2022-09-02T22:38:16.725Z,21.90
2022-09-02T22:41:25.454Z,21.90
2022-09-02T22:45:03.942Z,22.00
2022-09-02T22:48:33.740Z,21.90
2022-09-02T22:52:08.390Z,22.00
2022-09-02T22:55:10.752Z,21.90
2022-09-02T22:58:42.097Z,21.90
2022-09-02T23:02:20.349Z,22.00
2022-09-02T23:05:49.351Z,22.10
2022-09-02T23:08:51.685Z,22.10
2022-09-02T23:12:18.326Z,22.20
2022-09-02T23:15:35.824Z,22.10
2022-09-02T23:19:09.791Z,22.10
2022-09-02T23:22:43.290Z,22.20
2022-09-02T23:25:51.675Z,22.30
2022-09-02T23:29:01.539Z,22.30
2022-09-02T23:32:22.729Z,22.30
2022-09-02T23:35:36.018Z,22.20
2022-09-02T23:38:47.163Z,22.30
2022-09-02T23:41:49.602Z,22.40
2022-09-02T23:44:53.727Z,22.40
2022-09-02T23:48:04.838Z,22.40
2022-09-02T23:51:06.891Z,22.40
2022-09-02T23:54:26.107Z,22.30
2022-09-02T23:58:35.769Z,22.30
